createdAt,value
2023-02-06T00:00:29.586Z,6.30
2023-02-06T00:01:53.317Z,6.53
2023-02-06T00:03:15.842Z,6.33
2023-02-06T00:04:39.292Z,7.00
2023-02-06T00:06:04.220Z,5.77
2023-02-06T00:07:27.782Z,5.57
2023-02-06T00:08:51.180Z,5.87
2023-02-06T00:10:13.641Z,5.33
2023-02-06T00:11:37.400Z,6.23
2023-02-06T00:12:59.894Z,6.23
2023-02-06T00:14:23.281Z,5.40
2023-02-06T00:15:45.831Z,6.40
2023-02-06T00:17:09.337Z,5.50
2023-02-06T00:18:31.788Z,5.67
2023-02-06T00:19:55.208Z,6.33
2023-02-06T00:21:21.938Z,6.30
2023-02-06T00:22:46.353Z,6.27
2023-02-06T00:24:09.849Z,5.60
2023-02-06T00:25:32.464Z,6.30
2023-02-06T00:26:55.850Z,6.73
2023-02-06T00:28:18.571Z,6.17
2023-02-06T00:29:42.216Z,5.83
2023-02-06T00:31:07.375Z,6.50
2023-02-06T00:32:30.888Z,5.10
2023-02-06T00:33:54.428Z,5.77
2023-02-06T00:35:17.980Z,5.03
2023-02-06T00:36:42.764Z,5.40
2023-02-06T00:38:06.710Z,6.00
2023-02-06T00:39:30.256Z,6.37
2023-02-06T00:40:52.748Z,5.80
2023-02-06T00:42:16.337Z,5.37
2023-02-06T00:43:40.853Z,4.87
2023-02-06T00:45:04.730Z,6.10
2023-02-06T00:46:28.532Z,5.50
2023-02-06T00:47:51.036Z,5.57
2023-02-06T00:49:14.506Z,5.37
2023-02-06T00:50:40.736Z,5.87
2023-02-06T00:52:05.843Z,6.30
2023-02-06T00:53:29.484Z,5.83
2023-02-06T00:54:53.144Z,5.97
2023-02-06T00:56:17.676Z,5.93
2023-02-06T00:57:40.207Z,6.00
2023-02-06T00:59:03.873Z,5.80
2023-02-06T01:00:26.655Z,6.87
2023-02-06T01:01:50.200Z,5.70
2023-02-06T01:03:12.935Z,5.27
2023-02-06T01:04:36.411Z,6.43
2023-02-06T01:05:59.978Z,5.73
2023-02-06T01:07:23.822Z,5.93
2023-02-06T01:08:47.719Z,5.10
2023-02-06T01:10:12.061Z,4.67
2023-02-06T01:11:37.229Z,5.97
2023-02-06T01:13:00.914Z,4.87
2023-02-06T01:14:24.616Z,6.77
2023-02-06T01:15:48.425Z,6.47
2023-02-06T01:17:13.061Z,5.50
2023-02-06T01:18:36.678Z,5.90
2023-02-06T01:19:59.527Z,4.67
2023-02-06T01:21:26.055Z,5.87
2023-02-06T01:22:50.989Z,5.27
2023-02-06T01:24:14.230Z,5.07
2023-02-06T01:25:38.525Z,6.07
2023-02-06T01:27:02.056Z,5.87
2023-02-06T01:28:25.536Z,5.53
2023-02-06T01:29:48.037Z,5.67
2023-02-06T01:31:13.100Z,5.47
2023-02-06T01:32:38.042Z,5.80
2023-02-06T01:34:01.876Z,5.73
2023-02-06T01:35:24.439Z,5.87
2023-02-06T01:36:47.905Z,4.20
2023-02-06T01:38:12.718Z,5.17
2023-02-06T01:39:36.094Z,5.10
2023-02-06T01:40:59.396Z,5.50
2023-02-06T01:42:22.917Z,5.57
2023-02-06T01:43:48.079Z,4.20
2023-02-06T01:45:37.655Z,4.87
2023-02-06T01:47:01.658Z,5.30
2023-02-06T01:48:28.968Z,4.60
2023-02-06T01:49:53.022Z,5.17
2023-02-06T01:51:18.601Z,5.43
2023-02-06T01:52:42.260Z,5.87
2023-02-06T01:54:07.183Z,5.00
2023-02-06T01:55:31.370Z,4.97
2023-02-06T01:56:57.873Z,5.70
2023-02-06T01:58:26.434Z,4.63
2023-02-06T01:59:52.471Z,5.57
2023-02-06T02:01:15.575Z,4.50
2023-02-06T02:02:39.982Z,5.83
2023-02-06T02:04:06.805Z,5.90
2023-02-06T02:05:30.693Z,4.47
2023-02-06T02:07:01.304Z,5.27
2023-02-06T02:08:29.462Z,5.47
2023-02-06T02:09:54.348Z,4.73
2023-02-06T02:11:19.387Z,6.10
2023-02-06T02:12:42.842Z,5.93
2023-02-06T02:14:08.032Z,6.03
2023-02-06T02:15:40.343Z,5.60
2023-02-06T02:17:16.638Z,4.87
2023-02-06T02:19:09.197Z,5.00
2023-02-06T02:21:01.378Z,5.67
2023-02-06T02:22:41.490Z,5.80
2023-02-06T02:24:11.325Z,5.60
2023-02-06T02:26:15.224Z,5.43
2023-02-06T02:28:02.097Z,4.53
2023-02-06T02:29:59.686Z,4.87
2023-02-06T02:31:57.592Z,4.83
2023-02-06T02:33:37.806Z,5.30
2023-02-06T02:35:29.051Z,5.00
2023-02-06T02:36:54.002Z,5.07
2023-02-06T02:38:27.154Z,5.33
2023-02-06T02:39:56.767Z,4.77
2023-02-06T02:41:25.378Z,4.87
2023-02-06T02:42:55.205Z,5.33
2023-02-06T02:44:27.622Z,5.00
2023-02-06T02:45:55.371Z,5.33
2023-02-06T02:47:19.452Z,3.97
2023-02-06T02:48:44.509Z,5.40
2023-02-06T02:50:09.121Z,5.33
2023-02-06T02:51:33.005Z,4.97
2023-02-06T02:52:56.709Z,4.60
2023-02-06T02:54:20.838Z,5.73
2023-02-06T02:55:44.299Z,5.33
2023-02-06T02:57:09.993Z,5.10
2023-02-06T02:58:35.791Z,5.33
2023-02-06T03:00:00.233Z,5.07
2023-02-06T03:01:29.021Z,6.60
2023-02-06T03:02:53.059Z,5.30
2023-02-06T03:04:19.249Z,5.27
2023-02-06T03:05:49.036Z,5.07
2023-02-06T03:07:43.244Z,5.20
2023-02-06T03:09:12.678Z,5.27
2023-02-06T03:10:42.172Z,5.07
2023-02-06T03:12:11.602Z,5.37
2023-02-06T03:13:39.725Z,4.83
2023-02-06T03:15:06.130Z,4.50
2023-02-06T03:16:34.278Z,4.97
2023-02-06T03:18:02.393Z,4.60
2023-02-06T03:19:29.453Z,4.97
2023-02-06T03:20:54.429Z,5.33
2023-02-06T03:22:18.366Z,4.90
2023-02-06T03:23:44.259Z,4.27
2023-02-06T03:25:11.950Z,4.97
2023-02-06T03:26:37.143Z,4.60
2023-02-06T03:28:01.985Z,4.23
2023-02-06T03:29:26.128Z,4.10
2023-02-06T03:30:54.205Z,4.17
2023-02-06T03:32:19.433Z,4.60
2023-02-06T03:33:47.093Z,3.63
2023-02-06T03:35:13.708Z,4.30
2023-02-06T03:36:38.769Z,4.40
2023-02-06T03:38:02.291Z,4.30
2023-02-06T03:39:25.850Z,4.57
2023-02-06T03:40:50.874Z,4.57
2023-02-06T03:42:15.585Z,4.60
2023-02-06T03:43:39.077Z,4.70
2023-02-06T03:45:05.031Z,3.80
2023-02-06T03:46:30.926Z,4.20
2023-02-06T03:47:55.238Z,4.90
2023-02-06T03:49:20.117Z,4.40
2023-02-06T03:50:44.448Z,4.30
2023-02-06T03:52:11.767Z,3.83
2023-02-06T03:53:35.643Z,4.10
2023-02-06T03:55:02.366Z,3.87
2023-02-06T03:56:28.431Z,3.93
2023-02-06T03:57:55.116Z,3.93
2023-02-06T03:59:18.744Z,4.03
2023-02-06T04:00:44.134Z,3.53
2023-02-06T04:02:08.060Z,4.10
2023-02-06T04:03:30.643Z,3.17
2023-02-06T04:04:54.318Z,3.63
2023-02-06T04:06:17.845Z,3.57
2023-02-06T04:07:42.793Z,4.17
2023-02-06T04:09:05.306Z,4.53
2023-02-06T04:10:28.807Z,3.57
2023-02-06T04:11:51.269Z,4.00
2023-02-06T04:13:14.868Z,4.47
2023-02-06T04:14:37.395Z,4.18
2023-02-06T04:16:04.250Z,3.60
2023-02-06T04:17:43.051Z,3.57
2023-02-06T04:19:10.248Z,3.30
2023-02-06T04:20:33.861Z,3.33
2023-02-06T04:21:57.194Z,3.50
2023-02-06T04:23:22.618Z,3.97
2023-02-06T04:24:46.108Z,3.40
2023-02-06T04:26:08.703Z,3.65
2023-02-06T04:27:33.057Z,3.55
2023-02-06T04:28:56.561Z,3.80
2023-02-06T04:30:19.590Z,3.15
2023-02-06T04:31:43.266Z,4.55
2023-02-06T04:33:07.705Z,3.83
2023-02-06T04:34:31.557Z,3.28
2023-02-06T04:35:55.030Z,3.63
2023-02-06T04:37:18.556Z,3.80
2023-02-06T04:38:42.376Z,3.90
2023-02-06T04:40:06.676Z,3.83
2023-02-06T04:41:29.109Z,3.45
2023-02-06T04:42:52.541Z,3.83
2023-02-06T04:44:15.818Z,3.92
2023-02-06T04:45:39.357Z,3.50
2023-02-06T04:47:03.109Z,3.83
2023-02-06T04:48:26.726Z,4.03
2023-02-06T04:49:49.304Z,3.70
2023-02-06T04:51:12.916Z,3.85
2023-02-06T04:52:36.422Z,3.63
2023-02-06T04:54:02.565Z,3.38
2023-02-06T04:55:26.305Z,3.80
2023-02-06T04:56:49.181Z,3.50
2023-02-06T04:58:12.960Z,2.90
2023-02-06T04:59:35.506Z,4.23
2023-02-06T05:00:59.080Z,3.33
2023-02-06T05:02:21.556Z,3.13
2023-02-06T05:03:45.198Z,3.85
2023-02-06T05:05:09.391Z,2.83
2023-02-06T05:06:33.163Z,4.07
2023-02-06T05:07:56.748Z,3.63
2023-02-06T05:09:21.666Z,3.33
2023-02-06T05:10:45.079Z,2.47
2023-02-06T05:12:07.793Z,3.60
2023-02-06T05:13:31.316Z,3.43
2023-02-06T05:14:54.800Z,3.67
2023-02-06T05:16:18.775Z,3.70
2023-02-06T05:17:42.213Z,3.35
2023-02-06T05:19:04.707Z,3.28
2023-02-06T05:20:28.190Z,3.83
2023-02-06T05:21:50.807Z,3.10
2023-02-06T05:23:16.734Z,3.70
2023-02-06T05:24:41.508Z,3.23
2023-02-06T05:26:05.512Z,3.30
2023-02-06T05:27:29.085Z,3.47
2023-02-06T05:28:55.193Z,3.97
2023-02-06T05:30:19.059Z,4.33
2023-02-06T05:31:42.626Z,3.85
2023-02-06T05:33:05.117Z,3.72
2023-02-06T05:34:29.665Z,3.27
2023-02-06T05:35:53.116Z,3.70
2023-02-06T05:37:15.750Z,3.05
2023-02-06T05:38:39.221Z,3.45
2023-02-06T05:40:04.142Z,3.78
2023-02-06T05:41:27.704Z,3.28
2023-02-06T05:42:51.583Z,4.05
2023-02-06T05:44:15.146Z,3.60
2023-02-06T05:46:07.630Z,3.92
2023-02-06T05:47:31.164Z,3.97
2023-02-06T05:48:54.669Z,3.60
2023-02-06T05:50:17.368Z,3.60
2023-02-06T05:51:40.969Z,3.60
2023-02-06T05:53:04.478Z,3.22
2023-02-06T05:54:27.175Z,3.97
2023-02-06T05:55:52.147Z,3.42
2023-02-06T05:57:15.733Z,4.45
2023-02-06T05:58:38.202Z,3.40
2023-02-06T06:00:01.622Z,3.75
2023-02-06T06:01:28.592Z,4.10
2023-02-06T06:02:52.062Z,4.18
2023-02-06T06:04:15.627Z,4.93
2023-02-06T06:05:38.281Z,3.60
2023-02-06T06:07:02.107Z,3.97
2023-02-06T06:08:25.850Z,4.32
2023-02-06T06:09:49.303Z,4.50
2023-02-06T06:11:13.212Z,4.40
2023-02-06T06:12:36.733Z,4.03
2023-02-06T06:14:00.289Z,3.50
2023-02-06T06:15:23.925Z,4.35
2023-02-06T06:16:47.507Z,4.20
2023-02-06T06:18:11.152Z,4.20
2023-02-06T06:19:33.577Z,3.53
2023-02-06T06:21:02.011Z,5.15
2023-02-06T06:22:24.435Z,4.60
2023-02-06T06:23:47.972Z,4.35
2023-02-06T06:25:11.625Z,4.75
2023-02-06T06:26:36.485Z,3.60
2023-02-06T06:28:00.024Z,4.72
2023-02-06T06:29:23.552Z,4.13
2023-02-06T06:30:49.652Z,4.82
2023-02-06T06:32:13.149Z,5.00
2023-02-06T06:33:36.750Z,4.53
2023-02-06T06:35:00.211Z,5.82
2023-02-06T06:36:24.450Z,5.00
2023-02-06T06:37:47.919Z,5.05
2023-02-06T06:39:11.693Z,5.18
2023-02-06T06:40:35.350Z,4.25
2023-02-06T06:42:00.245Z,3.85
2023-02-06T06:43:23.877Z,5.05
2023-02-06T06:44:47.401Z,4.57
2023-02-06T06:46:11.087Z,4.78
2023-02-06T06:47:34.604Z,4.45
2023-02-06T06:48:58.048Z,5.25
2023-02-06T06:50:21.638Z,4.63
2023-02-06T06:51:47.489Z,4.78
2023-02-06T06:53:10.026Z,4.55
2023-02-06T06:54:33.465Z,4.90
2023-02-06T06:55:56.947Z,4.70
2023-02-06T06:57:22.110Z,5.38
2023-02-06T06:58:45.896Z,4.32
2023-02-06T07:00:10.739Z,4.88
2023-02-06T07:01:34.194Z,4.68
2023-02-06T07:02:57.673Z,4.70
2023-02-06T07:04:21.308Z,4.07
2023-02-06T07:05:44.990Z,4.65
2023-02-06T07:07:08.540Z,5.25
2023-02-06T07:08:32.301Z,5.07
2023-02-06T07:09:55.776Z,4.30
2023-02-06T07:11:19.201Z,4.40
2023-02-06T07:12:44.467Z,5.28
2023-02-06T07:14:08.034Z,5.18
2023-02-06T07:15:31.634Z,5.53
2023-02-06T07:16:56.210Z,5.47
2023-02-06T07:18:19.618Z,4.78
2023-02-06T07:19:47.878Z,6.05
2023-02-06T07:21:14.194Z,4.10
2023-02-06T07:22:37.679Z,5.88
2023-02-06T07:24:02.756Z,4.15
2023-02-06T07:25:26.169Z,5.05
2023-02-06T07:26:49.715Z,6.05
2023-02-06T07:28:13.599Z,4.45
2023-02-06T07:29:37.675Z,6.00
2023-02-06T07:31:02.281Z,5.75
2023-02-06T07:32:26.128Z,5.88
2023-02-06T07:33:49.733Z,5.90
2023-02-06T07:35:15.177Z,5.43
2023-02-06T07:36:38.654Z,5.35
2023-02-06T07:38:03.800Z,5.03
2023-02-06T07:39:27.467Z,5.45
2023-02-06T07:40:50.987Z,5.88
2023-02-06T07:42:14.454Z,6.00
2023-02-06T07:43:41.146Z,6.28
2023-02-06T07:45:04.853Z,6.43
2023-02-06T07:46:28.404Z,5.70
2023-02-06T07:47:52.006Z,6.10
2023-02-06T07:49:16.301Z,5.13
2023-02-06T07:50:40.026Z,6.35
2023-02-06T07:52:03.492Z,5.75
2023-02-06T07:53:26.969Z,5.93
2023-02-06T07:54:51.200Z,6.20
2023-02-06T07:56:16.933Z,5.18
2023-02-06T07:57:40.515Z,5.47
2023-02-06T07:59:05.570Z,5.75
2023-02-06T08:00:29.272Z,6.68
2023-02-06T08:01:52.956Z,6.03
2023-02-06T08:03:16.485Z,5.68
2023-02-06T08:04:40.101Z,5.82
2023-02-06T08:06:09.361Z,6.97
2023-02-06T08:07:32.914Z,5.93
2023-02-06T08:08:57.719Z,5.35
2023-02-06T08:10:21.313Z,6.32
2023-02-06T08:11:44.888Z,6.13
2023-02-06T08:13:08.753Z,6.40
2023-02-06T08:14:33.543Z,7.07
2023-02-06T08:15:57.127Z,5.85
2023-02-06T08:17:21.297Z,5.75
2023-02-06T08:18:45.025Z,6.22
2023-02-06T08:20:08.905Z,5.75
2023-02-06T08:21:32.351Z,5.57
2023-02-06T08:22:57.020Z,6.05
2023-02-06T08:24:20.652Z,5.80
2023-02-06T08:25:46.897Z,5.43
2023-02-06T08:27:12.439Z,6.07
2023-02-06T08:28:37.455Z,5.75
2023-02-06T08:30:06.459Z,6.05
2023-02-06T08:31:31.710Z,5.75
2023-02-06T08:32:55.284Z,6.07
2023-02-06T08:34:18.897Z,5.80
2023-02-06T08:35:42.303Z,6.20
2023-02-06T08:37:05.868Z,6.10
2023-02-06T08:38:29.374Z,5.63
2023-02-06T08:39:52.987Z,6.15
2023-02-06T08:41:18.872Z,6.13
2023-02-06T08:42:42.337Z,5.88
2023-02-06T08:44:07.732Z,6.60
2023-02-06T08:45:34.528Z,6.45
2023-02-06T08:47:09.280Z,6.13
2023-02-06T08:48:33.661Z,6.30
2023-02-06T08:50:01.500Z,6.35
2023-02-06T08:51:27.924Z,5.82
2023-02-06T08:52:51.466Z,7.28
2023-02-06T08:54:22.791Z,6.40
2023-02-06T08:55:46.238Z,6.97
2023-02-06T08:57:09.842Z,6.55
2023-02-06T08:58:33.802Z,7.10
2023-02-06T08:59:57.218Z,6.13
2023-02-06T09:01:22.958Z,7.68
2023-02-06T09:02:46.949Z,7.20
2023-02-06T09:04:12.908Z,7.15
2023-02-06T09:05:36.702Z,6.90
2023-02-06T09:07:00.282Z,6.75
2023-02-06T09:08:24.912Z,7.15
2023-02-06T09:09:48.466Z,6.93
2023-02-06T09:11:13.326Z,6.55
2023-02-06T09:12:36.814Z,7.18
2023-02-06T09:14:01.805Z,7.70
2023-02-06T09:15:25.256Z,7.20
2023-02-06T09:16:50.113Z,6.95
2023-02-06T09:18:13.515Z,7.70
2023-02-06T09:19:37.105Z,7.50
2023-02-06T09:21:10.147Z,7.32
2023-02-06T09:22:35.847Z,8.02
2023-02-06T09:24:01.151Z,7.57
2023-02-06T09:25:24.630Z,8.88
2023-02-06T09:26:59.506Z,7.28
2023-02-06T09:28:24.087Z,7.75
2023-02-06T09:29:48.185Z,7.43
2023-02-06T09:31:12.674Z,7.32
2023-02-06T09:32:37.924Z,8.15
2023-02-06T09:34:01.408Z,7.68
2023-02-06T09:35:25.298Z,7.43
2023-02-06T09:36:48.889Z,8.43
2023-02-06T09:38:12.328Z,6.45
2023-02-06T09:39:36.052Z,7.75
2023-02-06T09:41:00.948Z,7.43
2023-02-06T09:42:33.671Z,7.30
2023-02-06T09:44:00.803Z,7.55
2023-02-06T09:45:25.745Z,8.27
2023-02-06T09:46:52.433Z,8.32
2023-02-06T09:48:20.740Z,9.52
2023-02-06T09:49:47.506Z,8.48
2023-02-06T09:51:16.876Z,8.18
2023-02-06T09:52:55.466Z,9.18
2023-02-06T09:54:26.076Z,7.78
2023-02-06T09:55:53.186Z,8.77
2023-02-06T09:57:34.055Z,8.20
2023-02-06T09:59:02.881Z,7.85
2023-02-06T10:00:35.274Z,8.30
2023-02-06T10:02:15.436Z,7.43
2023-02-06T10:03:49.942Z,8.63
2023-02-06T10:05:21.075Z,8.60
2023-02-06T10:06:49.769Z,7.15
2023-02-06T10:08:18.289Z,9.38
2023-02-06T10:09:44.588Z,8.93
2023-02-06T10:11:12.446Z,7.53
2023-02-06T10:12:39.130Z,7.75
2023-02-06T10:14:05.481Z,8.35
2023-02-06T10:15:34.388Z,8.23
2023-02-06T10:17:01.802Z,7.95
2023-02-06T10:18:30.891Z,7.60
2023-02-06T10:19:59.462Z,8.75
2023-02-06T10:21:29.316Z,5.93
2023-02-06T10:23:05.245Z,6.95
2023-02-06T10:24:35.778Z,6.85
2023-02-06T10:26:08.012Z,7.13
2023-02-06T10:27:34.771Z,7.45
2023-02-06T10:29:00.062Z,8.30
2023-02-06T10:30:36.962Z,5.95
2023-02-06T10:32:13.481Z,6.00
2023-02-06T10:33:44.815Z,7.22
2023-02-06T10:35:21.679Z,7.10
2023-02-06T10:36:54.420Z,5.95
2023-02-06T10:38:40.280Z,7.15
2023-02-06T10:40:15.910Z,7.10
2023-02-06T10:41:45.002Z,5.80
2023-02-06T10:43:17.040Z,5.13
2023-02-06T10:44:51.115Z,6.40
2023-02-06T10:46:39.588Z,6.55
2023-02-06T10:48:05.713Z,7.85
2023-02-06T10:49:33.086Z,5.28
2023-02-06T10:51:01.730Z,6.50
2023-02-06T10:52:27.528Z,6.85
2023-02-06T10:53:53.205Z,5.22
2023-02-06T10:55:22.666Z,6.60
2023-02-06T10:56:47.654Z,7.13
2023-02-06T10:58:16.066Z,6.80
2023-02-06T10:59:41.639Z,7.85
2023-02-06T11:01:25.048Z,7.03
2023-02-06T11:03:06.242Z,6.40
2023-02-06T11:04:35.220Z,4.78
2023-02-06T11:06:00.513Z,5.53
2023-02-06T11:07:29.771Z,4.78
2023-02-06T11:08:53.555Z,7.80
2023-02-06T11:10:18.782Z,5.85
2023-02-06T11:11:47.968Z,7.78
2023-02-06T11:13:15.656Z,5.38
2023-02-06T11:14:40.804Z,7.57
2023-02-06T11:16:06.332Z,7.07
2023-02-06T11:17:29.974Z,5.30
2023-02-06T11:18:55.608Z,7.82
2023-02-06T11:20:22.050Z,5.28
2023-02-06T11:21:56.111Z,7.70
2023-02-06T11:23:21.436Z,2.20
2023-02-06T11:25:01.992Z,4.65
2023-02-06T11:26:25.398Z,6.57
2023-02-06T11:27:49.267Z,6.45
2023-02-06T11:29:17.692Z,7.70
2023-02-06T11:30:43.437Z,7.47
2023-02-06T11:32:08.453Z,6.90
2023-02-06T11:33:40.451Z,5.93
2023-02-06T11:35:07.358Z,6.45
2023-02-06T11:36:33.103Z,8.63
2023-02-06T11:38:08.705Z,6.10
2023-02-06T11:39:34.109Z,8.13
2023-02-06T11:41:00.885Z,4.57
2023-02-06T11:42:27.356Z,6.47
2023-02-06T11:43:53.643Z,7.72
2023-02-06T11:45:26.092Z,7.63
2023-02-06T11:46:49.601Z,5.38
2023-02-06T11:48:35.002Z,7.68
2023-02-06T11:49:58.968Z,7.60
2023-02-06T11:51:22.726Z,5.35
2023-02-06T11:52:47.420Z,6.25
2023-02-06T11:54:21.768Z,5.15
2023-02-06T11:55:47.014Z,2.92
2023-02-06T11:57:25.365Z,7.35
2023-02-06T11:59:01.693Z,4.13
2023-02-06T12:00:25.347Z,6.78
2023-02-06T12:01:50.131Z,7.43
2023-02-06T12:03:31.694Z,6.28
2023-02-06T12:05:01.137Z,10.40
2023-02-06T12:06:32.688Z,8.27
2023-02-06T12:08:00.063Z,6.57
2023-02-06T12:09:25.002Z,8.48
2023-02-06T12:10:54.714Z,7.53
2023-02-06T12:12:24.554Z,7.18
2023-02-06T12:13:52.216Z,9.30
2023-02-06T12:15:43.637Z,9.48
2023-02-06T12:17:03.488Z,8.70
2023-02-06T12:18:28.997Z,3.08
2023-02-06T12:20:00.053Z,5.47
2023-02-06T12:21:30.089Z,6.57
2023-02-06T12:22:55.881Z,5.70
2023-02-06T12:24:28.858Z,6.70
2023-02-06T12:25:55.709Z,4.38
2023-02-06T12:27:22.416Z,5.00
2023-02-06T12:28:52.997Z,8.52
2023-02-06T12:30:30.357Z,4.93
2023-02-06T12:31:59.037Z,7.93
2023-02-06T12:33:25.561Z,6.75
2023-02-06T12:34:54.377Z,5.07
2023-02-06T12:36:22.140Z,3.88
2023-02-06T12:37:49.299Z,5.88
2023-02-06T12:39:19.676Z,6.95
2023-02-06T12:40:52.076Z,6.55
2023-02-06T12:42:40.568Z,7.80
2023-02-06T12:44:07.819Z,5.63
2023-02-06T12:45:36.657Z,5.68
2023-02-06T12:47:08.384Z,6.32
2023-02-06T12:48:37.880Z,5.22
2023-02-06T12:50:06.098Z,6.68
2023-02-06T12:51:36.252Z,8.52
2023-02-06T12:53:02.830Z,6.88
2023-02-06T12:54:29.003Z,5.38
2023-02-06T12:55:59.671Z,7.18
2023-02-06T12:57:26.003Z,7.97
2023-02-06T12:58:55.012Z,6.95
2023-02-06T13:00:45.772Z,5.53
2023-02-06T13:02:24.203Z,7.00
2023-02-06T13:03:51.461Z,6.30
2023-02-06T13:05:22.865Z,7.15
2023-02-06T13:06:52.843Z,7.15
2023-02-06T13:08:19.000Z,7.05
2023-02-06T13:09:48.701Z,6.97
2023-02-06T13:11:29.668Z,8.07
2023-02-06T13:12:55.601Z,8.32
2023-02-06T13:14:21.215Z,7.55
2023-02-06T13:15:44.781Z,7.30
2023-02-06T13:17:11.720Z,6.28
2023-02-06T13:19:03.106Z,6.72
2023-02-06T13:20:28.217Z,7.82
2023-02-06T13:22:16.827Z,6.10
2023-02-06T13:23:50.734Z,6.07
2023-02-06T13:25:47.938Z,7.80
2023-02-06T13:27:14.080Z,6.18
2023-02-06T13:29:00.482Z,6.18
2023-02-06T13:30:46.460Z,5.43
2023-02-06T13:32:32.340Z,7.47
2023-02-06T13:33:58.871Z,7.45
2023-02-06T13:35:26.092Z,7.82
2023-02-06T13:36:54.499Z,8.10
2023-02-06T13:38:29.873Z,6.57
2023-02-06T13:40:20.972Z,7.00
2023-02-06T13:41:44.639Z,7.95
2023-02-06T13:43:14.749Z,7.50
2023-02-06T13:44:39.752Z,8.88
2023-02-06T13:46:06.709Z,7.07
2023-02-06T13:48:13.610Z,8.23
2023-02-06T13:50:13.694Z,8.65
2023-02-06T13:51:48.427Z,7.00
2023-02-06T13:53:32.976Z,7.70
2023-02-06T13:55:13.089Z,7.57
2023-02-06T13:56:48.488Z,8.23
2023-02-06T13:58:39.061Z,7.28
2023-02-06T14:00:07.379Z,7.88
2023-02-06T14:01:32.129Z,7.85
2023-02-06T14:02:57.378Z,7.85
2023-02-06T14:04:25.148Z,7.20
2023-02-06T14:06:00.140Z,7.85
2023-02-06T14:07:50.407Z,7.35
2023-02-06T14:09:32.058Z,7.32
2023-02-06T14:11:08.336Z,7.72
2023-02-06T14:12:44.371Z,7.55
2023-02-06T14:14:36.157Z,7.03
2023-02-06T14:16:08.958Z,8.48
2023-02-06T14:17:46.338Z,8.73
2023-02-06T14:19:14.038Z,8.45
2023-02-06T14:20:45.858Z,6.72
2023-02-06T14:22:19.362Z,8.15
2023-02-06T14:23:58.300Z,6.70
2023-02-06T14:25:32.527Z,6.40
2023-02-06T14:27:12.158Z,7.13
2023-02-06T14:28:45.616Z,7.03
2023-02-06T14:30:20.813Z,7.38
2023-02-06T14:32:03.304Z,5.85
2023-02-06T14:33:53.412Z,7.55
2023-02-06T14:35:36.185Z,6.45
2023-02-06T14:37:20.349Z,7.35
2023-02-06T14:39:02.767Z,7.13
2023-02-06T14:40:28.962Z,6.75
2023-02-06T14:41:52.613Z,7.15
2023-02-06T14:43:21.127Z,6.97
2023-02-06T14:44:46.385Z,7.30
2023-02-06T14:46:14.816Z,7.38
2023-02-06T14:47:43.264Z,8.10
2023-02-06T14:49:06.931Z,7.63
2023-02-06T14:50:33.348Z,7.72
2023-02-06T14:51:56.935Z,5.88
2023-02-06T14:53:24.031Z,8.40
2023-02-06T14:54:47.795Z,8.38
2023-02-06T14:56:17.527Z,8.50
2023-02-06T14:57:46.611Z,5.43
2023-02-06T14:59:16.814Z,7.13
2023-02-06T15:00:40.493Z,7.13
2023-02-06T15:02:15.076Z,6.93
2023-02-06T15:03:40.166Z,5.40
2023-02-06T15:05:05.291Z,7.43
2023-02-06T15:06:33.771Z,7.72
2023-02-06T15:07:59.920Z,4.97
2023-02-06T15:09:30.103Z,6.78
2023-02-06T15:11:02.112Z,6.55
2023-02-06T15:12:28.926Z,6.40
2023-02-06T15:13:53.995Z,6.82
2023-02-06T15:15:21.354Z,5.65
2023-02-06T15:16:48.472Z,5.97
2023-02-06T15:18:18.800Z,5.13
2023-02-06T15:19:42.543Z,6.43
2023-02-06T15:21:07.371Z,6.13
2023-02-06T15:22:32.012Z,5.75
2023-02-06T15:24:01.939Z,6.72
2023-02-06T15:25:35.714Z,6.90
2023-02-06T15:27:05.936Z,6.32
2023-02-06T15:28:32.566Z,5.88
2023-02-06T15:29:56.796Z,7.00
2023-02-06T15:31:22.924Z,6.63
2023-02-06T15:32:50.318Z,6.97
2023-02-06T15:34:18.112Z,7.63
2023-02-06T15:35:42.554Z,6.85
2023-02-06T15:37:22.110Z,6.10
2023-02-06T15:38:45.621Z,6.13
2023-02-06T15:40:46.543Z,6.03
2023-02-06T15:42:11.391Z,6.40
2023-02-06T15:43:35.501Z,6.32
2023-02-06T15:44:59.420Z,6.15
2023-02-06T15:46:24.896Z,5.95
2023-02-06T15:47:48.883Z,6.13
2023-02-06T15:49:22.057Z,5.40
2023-02-06T15:50:57.618Z,7.00
2023-02-06T15:52:43.216Z,5.90
2023-02-06T15:54:08.764Z,5.97
2023-02-06T15:55:35.736Z,7.03
2023-02-06T15:57:03.887Z,7.40
2023-02-06T15:58:27.800Z,7.88
2023-02-06T15:59:51.472Z,7.07
2023-02-06T16:01:18.325Z,7.85
2023-02-06T16:02:46.547Z,7.93
2023-02-06T16:04:14.215Z,6.85
2023-02-06T16:05:40.508Z,7.60
2023-02-06T16:07:13.004Z,7.72
2023-02-06T16:08:38.140Z,7.63
2023-02-06T16:10:06.040Z,6.40
2023-02-06T16:11:50.870Z,7.93
2023-02-06T16:13:19.549Z,7.43
2023-02-06T16:14:52.925Z,7.47
2023-02-06T16:16:21.870Z,6.30
2023-02-06T16:17:46.982Z,7.07
2023-02-06T16:19:29.022Z,5.95
2023-02-06T16:20:52.566Z,7.72
2023-02-06T16:22:19.514Z,6.53
2023-02-06T16:23:47.519Z,7.40
2023-02-06T16:25:21.931Z,5.97
2023-02-06T16:26:48.012Z,6.00
2023-02-06T16:28:22.814Z,7.77
2023-02-06T16:29:49.345Z,7.00
2023-02-06T16:31:15.558Z,7.50
2023-02-06T16:32:39.186Z,7.05
2023-02-06T16:34:06.377Z,6.95
2023-02-06T16:35:30.378Z,6.87
2023-02-06T16:36:55.585Z,7.30
2023-02-06T16:38:19.303Z,7.77
2023-02-06T16:39:44.054Z,7.03
2023-02-06T16:41:25.553Z,6.82
2023-02-06T16:42:49.399Z,7.20
2023-02-06T16:44:14.606Z,6.80
2023-02-06T16:45:38.208Z,6.85
2023-02-06T16:47:01.647Z,6.18
2023-02-06T16:48:25.333Z,7.43
2023-02-06T16:49:51.024Z,5.57
2023-02-06T16:51:16.262Z,7.50
2023-02-06T16:52:42.537Z,6.00
2023-02-06T16:54:09.332Z,7.10
2023-02-06T16:55:32.757Z,6.47
2023-02-06T16:56:58.169Z,7.03
2023-02-06T16:58:24.508Z,6.83
2023-02-06T16:59:48.913Z,6.68
2023-02-06T17:01:24.723Z,6.73
2023-02-06T17:02:49.046Z,5.40
2023-02-06T17:04:12.547Z,6.77
2023-02-06T17:05:38.675Z,5.63
2023-02-06T17:07:01.316Z,4.63
2023-02-06T17:08:26.299Z,5.38
2023-02-06T17:09:50.701Z,6.50
2023-02-06T17:11:14.682Z,6.90
2023-02-06T17:12:38.391Z,6.93
2023-02-06T17:14:02.282Z,5.80
2023-02-06T17:15:25.823Z,6.90
2023-02-06T17:16:49.388Z,7.10
2023-02-06T17:18:14.682Z,5.93
2023-02-06T17:19:38.412Z,8.27
2023-02-06T17:21:03.275Z,6.37
2023-02-06T17:22:26.756Z,7.50
2023-02-06T17:23:51.150Z,5.83
2023-02-06T17:25:14.750Z,7.18
2023-02-06T17:26:38.317Z,7.97
2023-02-06T17:28:02.437Z,7.90
2023-02-06T17:29:26.152Z,7.07
2023-02-06T17:30:50.862Z,6.90
2023-02-06T17:32:16.063Z,8.60
2023-02-06T17:33:42.161Z,7.50
2023-02-06T17:35:08.169Z,8.77
2023-02-06T17:36:39.503Z,7.43
2023-02-06T17:38:03.174Z,8.40
2023-02-06T17:39:29.082Z,8.30
2023-02-06T17:40:53.046Z,8.03
2023-02-06T17:42:16.939Z,7.53
2023-02-06T17:43:40.500Z,8.40
2023-02-06T17:45:03.977Z,9.38
2023-02-06T17:46:27.562Z,8.63
2023-02-06T17:47:51.266Z,7.53
2023-02-06T17:49:15.480Z,8.20
2023-02-06T17:50:40.692Z,8.33
2023-02-06T17:52:05.891Z,8.27
2023-02-06T17:53:29.366Z,8.10
2023-02-06T17:54:53.408Z,8.55
2023-02-06T17:56:19.300Z,8.53
2023-02-06T17:57:43.139Z,7.87
2023-02-06T17:59:06.533Z,7.93
2023-02-06T18:00:30.233Z,7.20
2023-02-06T18:01:54.633Z,7.05
2023-02-06T18:03:21.213Z,8.17
2023-02-06T18:04:44.589Z,7.53
2023-02-06T18:06:08.829Z,8.02
2023-02-06T18:07:34.593Z,8.30
2023-02-06T18:08:58.174Z,8.60
2023-02-06T18:10:23.490Z,8.27
2023-02-06T18:11:47.109Z,9.17
2023-02-06T18:13:10.638Z,8.43
2023-02-06T18:14:35.379Z,8.33
2023-02-06T18:15:59.375Z,9.67
2023-02-06T18:17:23.276Z,7.97
2023-02-06T18:18:47.166Z,8.15
2023-02-06T18:20:12.864Z,9.93
2023-02-06T18:21:36.541Z,9.20
2023-02-06T18:23:03.851Z,9.13
2023-02-06T18:24:26.409Z,8.97
2023-02-06T18:25:49.862Z,9.53
2023-02-06T18:27:13.834Z,8.43
2023-02-06T18:28:38.740Z,9.03
2023-02-06T18:30:03.670Z,8.47
2023-02-06T18:31:29.858Z,8.05
2023-02-06T18:32:53.582Z,9.23
2023-02-06T18:34:20.164Z,8.37
2023-02-06T18:35:46.453Z,9.10
2023-02-06T18:37:10.574Z,9.03
2023-02-06T18:38:35.510Z,9.30
2023-02-06T18:39:59.189Z,7.87
2023-02-06T18:41:41.701Z,9.30
2023-02-06T18:43:05.601Z,8.30
2023-02-06T18:44:28.102Z,8.20
2023-02-06T18:45:51.603Z,9.77
2023-02-06T18:47:17.284Z,8.50
2023-02-06T18:48:40.902Z,8.10
2023-02-06T18:50:04.500Z,9.67
2023-02-06T18:51:29.135Z,9.37
2023-02-06T18:52:52.668Z,9.50
2023-02-06T18:54:17.573Z,8.97
2023-02-06T18:55:41.120Z,8.40
2023-02-06T18:57:04.848Z,9.27
2023-02-06T18:58:34.726Z,9.53
2023-02-06T18:59:58.801Z,9.00
2023-02-06T19:01:25.359Z,9.10
2023-02-06T19:02:48.978Z,9.93
2023-02-06T19:04:13.516Z,9.33
2023-02-06T19:05:37.413Z,9.07
2023-02-06T19:07:00.894Z,8.90
2023-02-06T19:08:24.415Z,9.13
2023-02-06T19:09:49.286Z,9.30
2023-02-06T19:11:13.011Z,9.30
2023-02-06T19:12:36.495Z,9.43
2023-02-06T19:13:59.905Z,9.20
2023-02-06T19:15:24.806Z,9.63
2023-02-06T19:16:49.022Z,8.97
2023-02-06T19:18:12.718Z,8.20
2023-02-06T19:19:55.122Z,9.57
2023-02-06T19:21:38.389Z,8.13